Terminal Aerodrome Forecast
Issued by NWS Hastings, NE

Home | Current Version | Previous Version | Text Only | Print | Product List | Glossary On
Versions: 1 2 3 4 5 6 7 8 9 10 11 12 13 14 15 16 17 18 19 20 21 22 23 24 25 26 27 28 29 30
000
FTUS43 KGID 190536
TAFGRI
TAF
KGRI 190536Z 1906/2006 17014G18KT 6SM HZ BR OVC004 WS015/19050KT
     FM190800 18012KT 4SM BR OVC002 WS010/21050KT
     FM191500 20016G26KT P6SM SCT250
     FM200100 19012KT P6SM SCT250=

USA.gov is the U.S. government's official web portal to all federal, state and local government web resources and services.